createdAt,value
2023-01-29T00:02:20.171Z,6.88
2023-01-29T00:07:23.980Z,6.05
2023-01-29T00:12:29.370Z,6.60
2023-01-29T00:17:34.758Z,6.43
2023-01-29T00:22:38.039Z,6.20
2023-01-29T00:27:43.935Z,6.53
2023-01-29T00:32:47.614Z,6.72
2023-01-29T00:37:51.457Z,6.57
2023-01-29T00:43:14.027Z,6.55
2023-01-29T00:48:18.042Z,6.68
2023-01-29T00:53:21.451Z,6.13
2023-01-29T00:58:34.915Z,6.30
2023-01-29T01:03:42.248Z,6.50
2023-01-29T01:09:03.746Z,6.32
2023-01-29T01:14:10.196Z,6.05
2023-01-29T01:19:17.236Z,6.03
2023-01-29T01:24:21.753Z,6.78
2023-01-29T01:29:28.047Z,7.22
2023-01-29T01:34:32.016Z,6.40
2023-01-29T01:39:35.334Z,6.57
2023-01-29T01:44:56.056Z,6.80
2023-01-29T01:50:03.095Z,6.68
2023-01-29T01:55:07.508Z,7.05
2023-01-29T02:00:15.455Z,6.30
2023-01-29T02:05:37.372Z,6.37
2023-01-29T02:10:51.742Z,5.53
2023-01-29T02:15:57.892Z,6.63
2023-01-29T02:21:29.326Z,5.30
2023-01-29T02:26:50.087Z,6.15
2023-01-29T02:32:03.042Z,6.57
2023-01-29T02:37:11.078Z,5.55
2023-01-29T02:42:18.535Z,6.13
2023-01-29T02:47:24.845Z,6.38
2023-01-29T02:52:33.134Z,6.70
2023-01-29T02:57:38.177Z,6.20
2023-01-29T03:02:44.573Z,5.28
2023-01-29T03:07:52.087Z,6.32
2023-01-29T03:13:05.119Z,4.80
2023-01-29T03:18:14.994Z,5.97
2023-01-29T03:23:24.159Z,5.53
2023-01-29T03:28:46.471Z,6.03
2023-01-29T03:33:55.987Z,7.15
2023-01-29T03:39:00.332Z,6.38
2023-01-29T03:44:10.552Z,6.95
2023-01-29T03:49:19.887Z,6.70
2023-01-29T03:54:31.758Z,6.18
2023-01-29T03:59:41.099Z,6.25
2023-01-29T04:05:06.525Z,5.82
2023-01-29T04:10:18.238Z,7.18
2023-01-29T04:15:22.350Z,6.65
2023-01-29T04:20:28.459Z,6.05
2023-01-29T04:25:37.097Z,6.50
2023-01-29T04:30:47.481Z,6.78
2023-01-29T04:36:06.132Z,6.88
2023-01-29T04:41:12.898Z,6.35
2023-01-29T04:46:18.527Z,6.45
2023-01-29T04:51:26.169Z,5.10
2023-01-29T04:56:32.566Z,6.07
2023-01-29T05:01:36.538Z,6.05
2023-01-29T05:06:41.516Z,6.22
2023-01-29T05:11:45.082Z,5.70
2023-01-29T05:16:50.850Z,5.90
2023-01-29T05:21:57.289Z,3.33
2023-01-29T05:27:20.657Z,3.33
2023-01-29T05:32:24.517Z,4.90
2023-01-29T05:37:30.611Z,4.38
2023-01-29T05:42:38.982Z,5.55
2023-01-29T05:47:42.475Z,4.53
2023-01-29T05:52:47.455Z,5.63
2023-01-29T05:57:50.923Z,5.30
2023-01-29T06:02:56.871Z,5.63
2023-01-29T06:08:06.214Z,5.38
2023-01-29T06:13:13.929Z,5.07
2023-01-29T06:18:26.642Z,5.68
2023-01-29T06:23:34.550Z,5.93
2023-01-29T06:28:38.067Z,5.95
2023-01-29T06:33:41.642Z,6.18
2023-01-29T06:38:47.278Z,5.70
2023-01-29T06:43:51.135Z,5.88
2023-01-29T06:48:55.511Z,5.40
2023-01-29T06:54:02.315Z,6.32
2023-01-29T06:59:06.215Z,5.95
2023-01-29T07:04:09.532Z,5.57
2023-01-29T07:09:14.938Z,6.20
2023-01-29T07:14:18.146Z,5.90
2023-01-29T07:19:21.844Z,5.82
2023-01-29T07:24:26.690Z,6.72
2023-01-29T07:29:30.639Z,5.53
2023-01-29T07:34:34.930Z,6.35
2023-01-29T07:39:40.084Z,7.28
2023-01-29T07:44:43.447Z,6.78
2023-01-29T07:49:46.740Z,5.15
2023-01-29T07:54:51.506Z,6.90
2023-01-29T07:59:54.631Z,6.40
2023-01-29T08:04:58.025Z,6.85
2023-01-29T08:10:02.728Z,6.25
2023-01-29T08:15:06.855Z,4.80
2023-01-29T08:20:17.715Z,6.10
2023-01-29T08:25:24.137Z,6.70
2023-01-29T08:30:28.085Z,6.18
2023-01-29T08:35:32.225Z,5.80
2023-01-29T08:40:38.407Z,6.43
2023-01-29T08:45:47.428Z,5.85
2023-01-29T08:50:52.625Z,6.40
2023-01-29T08:56:01.635Z,7.95
2023-01-29T09:01:09.695Z,6.40
2023-01-29T09:06:16.945Z,7.78
2023-01-29T09:11:27.664Z,8.43
2023-01-29T09:16:34.485Z,8.27
2023-01-29T09:21:40.181Z,8.07
2023-01-29T09:26:47.326Z,8.77
2023-01-29T09:31:51.698Z,8.70
2023-01-29T09:36:55.478Z,8.98
2023-01-29T09:42:05.317Z,8.85
2023-01-29T09:47:11.167Z,6.63
2023-01-29T09:52:18.143Z,7.90
2023-01-29T09:57:27.165Z,9.23
2023-01-29T10:02:49.604Z,8.32
2023-01-29T10:08:22.432Z,7.05
2023-01-29T10:13:34.115Z,8.90
2023-01-29T10:19:01.272Z,8.60
2023-01-29T10:24:12.771Z,8.15
2023-01-29T10:29:20.033Z,9.13
2023-01-29T10:34:27.221Z,9.20
2023-01-29T10:39:31.616Z,9.98
2023-01-29T10:44:44.075Z,8.35
2023-01-29T10:50:24.123Z,6.13
2023-01-29T10:55:37.039Z,8.93
2023-01-29T11:00:45.065Z,7.70
2023-01-29T11:05:51.601Z,8.25
2023-01-29T11:11:01.051Z,9.90
2023-01-29T11:16:11.489Z,7.82
2023-01-29T11:21:24.411Z,7.60
2023-01-29T11:26:28.287Z,7.05
2023-01-29T11:31:39.623Z,7.55
2023-01-29T11:36:45.412Z,10.73
2023-01-29T11:42:14.074Z,9.63
2023-01-29T11:47:22.111Z,10.48
2023-01-29T11:52:29.107Z,11.05
2023-01-29T11:57:36.539Z,11.52
2023-01-29T12:02:47.439Z,9.90
2023-01-29T12:07:57.666Z,11.60
2023-01-29T12:13:10.297Z,9.50
2023-01-29T12:18:18.668Z,11.00
2023-01-29T12:23:26.892Z,11.80
2023-01-29T12:28:42.548Z,9.52
2023-01-29T12:33:51.197Z,9.48
2023-01-29T12:39:06.010Z,11.10
2023-01-29T12:44:20.558Z,11.35
2023-01-29T12:49:29.205Z,9.38
2023-01-29T12:54:42.690Z,11.55
2023-01-29T12:59:49.129Z,7.53
2023-01-29T13:04:57.016Z,13.30
2023-01-29T13:10:07.208Z,13.23
2023-01-29T13:15:18.365Z,8.30
2023-01-29T13:20:25.395Z,10.68
2023-01-29T13:25:28.935Z,12.48
2023-01-29T13:30:34.334Z,13.23
2023-01-29T13:35:42.743Z,13.98
2023-01-29T13:40:50.564Z,11.80
2023-01-29T13:46:00.108Z,12.60
2023-01-29T13:51:06.861Z,14.15
2023-01-29T13:56:51.959Z,12.93
2023-01-29T14:02:25.295Z,13.68
2023-01-29T14:08:04.216Z,11.73
2023-01-29T14:13:36.810Z,14.07
2023-01-29T14:18:49.715Z,13.23
2023-01-29T14:23:55.473Z,14.20
2023-01-29T14:29:07.047Z,13.98
2023-01-29T14:34:22.705Z,11.55
2023-01-29T14:39:38.318Z,10.98
2023-01-29T14:45:09.411Z,12.23
2023-01-29T14:51:04.377Z,13.02
2023-01-29T14:56:16.512Z,13.55
2023-01-29T15:01:40.493Z,10.02
2023-01-29T15:07:18.194Z,13.48
2023-01-29T15:12:36.675Z,13.20
2023-01-29T15:18:10.166Z,13.48
2023-01-29T15:23:27.597Z,12.45
2023-01-29T15:28:51.877Z,13.57
2023-01-29T15:34:09.632Z,12.57
2023-01-29T15:39:28.499Z,11.85
2023-01-29T15:44:39.109Z,14.85
2023-01-29T15:49:50.937Z,11.15
2023-01-29T15:55:15.641Z,13.75
2023-01-29T16:00:30.978Z,12.77
2023-01-29T16:05:38.096Z,14.82
2023-01-29T16:10:53.996Z,13.45
2023-01-29T16:16:02.469Z,15.90
2023-01-29T16:21:16.381Z,12.40
2023-01-29T16:26:38.464Z,14.18
2023-01-29T16:31:46.221Z,13.65
2023-01-29T16:36:54.542Z,15.77
2023-01-29T16:48:31.387Z,15.80
2023-01-29T16:54:05.115Z,13.50
2023-01-29T16:59:13.611Z,16.52
2023-01-29T17:04:19.933Z,15.85
2023-01-29T17:09:26.550Z,14.73
2023-01-29T17:14:29.788Z,15.20
2023-01-29T17:19:36.477Z,16.35
2023-01-29T17:24:42.931Z,16.20
2023-01-29T17:29:47.497Z,16.55
2023-01-29T17:34:55.805Z,15.38
2023-01-29T17:40:05.391Z,17.30
2023-01-29T17:45:24.304Z,17.17
2023-01-29T17:50:29.032Z,17.10
2023-01-29T17:55:34.516Z,17.90
2023-01-29T18:00:41.958Z,17.42
2023-01-29T18:05:45.929Z,18.52
2023-01-29T18:10:50.870Z,17.60
2023-01-29T18:15:54.462Z,15.88
2023-01-29T18:20:59.962Z,12.57
2023-01-29T18:26:08.605Z,16.40
2023-01-29T18:31:14.130Z,11.77
2023-01-29T18:36:22.807Z,13.27
2023-01-29T18:41:29.438Z,11.73
2023-01-29T18:52:08.112Z,16.80
2023-01-29T18:58:26.223Z,14.93
2023-01-29T19:02:59.925Z,11.20
2023-01-29T19:08:24.480Z,11.95
2023-01-29T19:13:58.619Z,16.05
2023-01-29T19:19:02.755Z,15.80
2023-01-29T19:24:10.037Z,12.20
2023-01-29T19:29:23.108Z,15.53
2023-01-29T19:34:33.981Z,12.85
2023-01-29T19:39:53.856Z,13.98
2023-01-29T19:50:55.773Z,13.43
2023-01-29T19:56:10.451Z,13.77
2023-01-29T20:01:20.830Z,12.25
2023-01-29T20:06:26.307Z,12.77
2023-01-29T20:11:30.824Z,11.55
2023-01-29T20:16:46.613Z,11.07
2023-01-29T20:22:06.335Z,11.80
2023-01-29T20:27:15.463Z,13.57
2023-01-29T20:32:35.896Z,12.57
2023-01-29T20:38:01.295Z,13.88
2023-01-29T20:43:11.481Z,12.82
2023-01-29T20:48:18.855Z,13.02
2023-01-29T20:53:30.904Z,15.05
2023-01-29T20:58:38.610Z,9.63
2023-01-29T21:03:43.613Z,13.13
2023-01-29T21:08:54.639Z,10.43
2023-01-29T21:13:59.563Z,10.20
2023-01-29T21:19:14.457Z,12.70
2023-01-29T21:24:19.500Z,12.70
2023-01-29T21:29:24.947Z,13.07
2023-01-29T21:34:35.539Z,12.75
2023-01-29T21:39:42.494Z,8.15
2023-01-29T21:44:48.691Z,10.75
2023-01-29T21:49:54.111Z,11.43
2023-01-29T21:55:06.285Z,8.77
2023-01-29T22:00:23.198Z,10.82
2023-01-29T22:05:38.575Z,12.25
2023-01-29T22:10:51.530Z,11.35
2023-01-29T22:16:05.114Z,11.75
2023-01-29T22:21:10.150Z,10.20
2023-01-29T22:26:23.072Z,9.20
2023-01-29T22:33:06.465Z,10.38
2023-01-29T22:38:16.248Z,10.38
2023-01-29T22:49:45.790Z,9.67
2023-01-29T22:54:59.117Z,14.02
2023-01-29T23:00:19.625Z,12.80
2023-01-29T23:05:51.942Z,11.38
2023-01-29T23:11:14.829Z,13.88
2023-01-29T23:16:26.924Z,8.35
2023-01-29T23:21:58.911Z,12.27
2023-01-29T23:27:27.876Z,12.98
2023-01-29T23:32:38.902Z,9.23
2023-01-29T23:37:53.743Z,13.15
2023-01-29T23:43:07.328Z,13.50
2023-01-29T23:48:29.315Z,14.77
2023-01-29T23:53:51.807Z,13.23
2023-01-29T23:59:01.101Z,14.95
